Time;durP1;ratioP1;P1;durP2;ratioP2;P2;SDS_P1;SDS_P2;PMS_P1;PMS_P2;Temp;Humidity;BMP_temperature;BMP_pressure;BME280_temperature;BME280_humidity;BME280_pressure;Samples;Min_cycle;Max_cycle;Signal;HPM_P1;HPM_P2
2024/04/02 00:00:21;;;;;;;;;;;;;;;10.80;62.51;98885.53;4173677;28;19915;-71
2024/04/02 00:02:21;;;;;;;;;;;;;;;10.70;62.82;98893.72;4173834;28;19909;-71
2024/04/02 00:04:23;;;;;;;;;;;;;;;10.72;62.87;98882.88;4162317;28;19984;-71
2024/04/02 00:06:23;;;;;;;;;;;;;;;10.77;62.63;98888.53;4162917;28;19913;-71
2024/04/02 00:08:24;;;;;;;;;;;;;;;10.76;62.75;98893.06;4162445;28;19944;-72
2024/04/02 00:10:24;;;;;;;;;;;;;;;10.82;62.74;98898.69;4163030;28;20004;-71
2024/04/02 00:12:25;;;;;;;;;;;;;;;10.91;62.35;98900.31;4163023;28;19960;-73
2024/04/02 00:14:25;;;;;;;;;;;;;;;10.83;62.34;98901.19;4162821;28;20326;-71
2024/04/02 00:16:25;;;;;;;;;;;;;;;10.79;62.57;98909.72;4160128;28;19978;-72
2024/04/02 00:18:25;;;;;;;;;;;;;;;10.69;63.01;98917.97;4160823;28;19979;-72
2024/04/02 00:20:26;;;;;;;;;;;;;;;10.69;62.77;98910.78;4162927;28;20327;-72
2024/04/02 00:22:26;;;;;;;;;;;;;;;10.83;62.55;98914.56;4162599;28;20003;-71
2024/04/02 00:24:26;;;;;;;;;;;;;;;10.88;62.33;98919.38;4162861;28;19916;-72
2024/04/02 00:26:27;;;;;;;;;;;;;;;10.86;62.46;98918.75;4162723;28;19913;-71
2024/04/02 00:28:27;;;;;;;;;;;;;;;10.98;62.28;98925.34;4161789;28;19966;-71
2024/04/02 00:30:28;;;;;;;;;;;;;;;10.92;61.87;98920.72;4162812;28;20014;-72
2024/04/02 00:32:28;;;;;;;;;;;;;;;10.85;62.24;98935.78;4162580;28;20459;-72
2024/04/02 00:34:28;;;;;;;;;;;;;;;10.81;62.58;98929.97;4162470;28;19916;-72
2024/04/02 00:36:29;;;;;;;;;;;;;;;10.74;62.62;98934.31;4162606;28;19909;-72
2024/04/02 00:38:29;;;;;;;;;;;;;;;10.78;62.42;98927.63;4162343;28;19916;-72
2024/04/02 00:40:29;;;;;;;;;;;;;;;10.79;62.42;98931.97;4162440;28;19959;-73
2024/04/02 00:42:30;;;;;;;;;;;;;;;10.81;62.67;98935.31;4161278;28;19920;-72
2024/04/02 00:44:33;;;;;;;;;;;;;;;10.83;62.38;98932.44;4162395;28;19913;-72
2024/04/02 00:46:33;;;;;;;;;;;;;;;10.86;62.22;98937.47;4161255;28;19909;-72
2024/04/02 00:48:34;;;;;;;;;;;;;;;10.69;62.91;98950.06;4164113;28;19975;-70
2024/04/02 00:50:34;;;;;;;;;;;;;;;10.59;62.95;98947.56;4170989;28;20464;-72
2024/04/02 00:52:35;;;;;;;;;;;;;;;10.65;63.12;98951.38;4166484;28;19909;-72
2024/04/02 00:54:35;;;;;;;;;;;;;;;10.61;63.28;98948.22;4167473;28;19970;-72
2024/04/02 00:56:36;;;;;;;;;;;;;;;10.66;63.01;98953.91;4169233;28;19909;-71
2024/04/02 00:58:37;;;;;;;;;;;;;;;10.62;63.15;98957.91;4167826;28;20588;-73
2024/04/02 01:00:39;;;;;;;;;;;;;;;10.70;63.05;98957.88;4169086;28;19980;-72
2024/04/02 01:02:39;;;;;;;;;;;;;;;10.83;62.68;98961.88;4169779;28;19913;-72
2024/04/02 01:04:40;;;;;;;;;;;;;;;10.93;62.62;98963.31;4172523;28;20608;-72
2024/04/02 01:06:40;;;;;;;;;;;;;;;10.81;62.76;98953.19;4173907;28;20003;-72
2024/04/02 01:08:42;;;;;;;;;;;;;;;10.86;62.70;98953.50;4172821;28;19989;-72
2024/04/02 01:10:42;;;;;;;;;;;;;;;10.91;62.62;98964.50;4173580;28;19995;-71
2024/04/02 01:12:43;;;;;;;;;;;;;;;10.88;62.58;98954.13;4168156;28;19917;-72
2024/04/02 01:14:44;;;;;;;;;;;;;;;10.87;62.91;98960.50;4166165;28;19909;-72
2024/04/02 01:16:45;;;;;;;;;;;;;;;10.79;62.90;98965.88;4164095;28;19974;-71
2024/04/02 01:18:46;;;;;;;;;;;;;;;10.73;62.91;98968.25;4164972;28;20284;-70
2024/04/02 01:20:47;;;;;;;;;;;;;;;10.65;63.26;98964.75;4165926;28;19909;-71
2024/04/02 01:22:47;;;;;;;;;;;;;;;10.57;63.40;98966.44;4166251;28;19931;-72
2024/04/02 01:24:54;;;;;;;;;;;;;;;10.56;63.59;98967.44;4165270;28;20401;-71
2024/04/02 01:26:55;;;;;;;;;;;;;;;10.57;63.48;98968.31;4166225;28;20006;-72
2024/04/02 01:28:58;;;;;;;;;;;;;;;10.54;63.85;98979.31;4164493;28;19917;-72
2024/04/02 01:30:58;;;;;;;;;;;;;;;10.67;63.40;98971.63;4165651;28;19916;-71
2024/04/02 01:32:58;;;;;;;;;;;;;;;10.53;63.56;98983.81;4165882;28;19948;-71
2024/04/02 01:34:59;;;;;;;;;;;;;;;10.56;63.35;98977.31;4165450;28;20373;-72
2024/04/02 01:36:59;;;;;;;;;;;;;;;10.65;63.28;98978.13;4166161;28;19955;-73
2024/04/02 01:38:59;;;;;;;;;;;;;;;10.69;63.29;98984.78;4168829;28;19999;-72
2024/04/02 01:41:00;;;;;;;;;;;;;;;10.77;63.02;98988.25;4156276;28;20007;-72
2024/04/02 01:43:00;;;;;;;;;;;;;;;10.76;63.02;98986.63;4156999;28;19910;-71
2024/04/02 01:45:00;;;;;;;;;;;;;;;10.79;62.95;98988.09;4158238;28;19923;-72
2024/04/02 01:47:00;;;;;;;;;;;;;;;10.75;62.84;98987.63;4175110;28;19913;-72
2024/04/02 01:49:01;;;;;;;;;;;;;;;10.75;62.96;98990.28;4165865;28;19996;-71
2024/04/02 01:51:01;;;;;;;;;;;;;;;10.72;63.13;98989.81;4165408;28;19920;-71
2024/04/02 01:53:01;;;;;;;;;;;;;;;10.74;63.03;98993.97;4166013;28;19909;-74
2024/04/02 01:55:02;;;;;;;;;;;;;;;10.83;62.75;98992.09;4166173;28;20305;-73
2024/04/02 01:57:02;;;;;;;;;;;;;;;10.84;62.81;98999.09;4164218;28;19916;-71
2024/04/02 01:59:02;;;;;;;;;;;;;;;10.58;63.52;99004.72;4165085;28;19971;-71
2024/04/02 02:01:03;;;;;;;;;;;;;;;10.58;63.37;98996.69;4165599;28;19948;-71
2024/04/02 02:03:04;;;;;;;;;;;;;;;10.68;63.27;99013.34;4165138;28;20454;-71
2024/04/02 02:05:04;;;;;;;;;;;;;;;10.57;63.58;99014.56;4164965;28;19915;-72
2024/04/02 02:07:04;;;;;;;;;;;;;;;10.64;63.55;99012.03;4164764;28;19917;-71
2024/04/02 02:09:06;;;;;;;;;;;;;;;10.65;63.41;99011.03;4164474;28;20420;-72
2024/04/02 02:11:06;;;;;;;;;;;;;;;10.50;63.71;99018.06;4164445;28;19917;-72
2024/04/02 02:13:08;;;;;;;;;;;;;;;10.53;63.62;99017.72;4163631;28;20062;-72
2024/04/02 02:15:08;;;;;;;;;;;;;;;10.60;63.59;99019.56;4164040;28;20012;-71
2024/04/02 02:17:09;;;;;;;;;;;;;;;10.61;63.32;99031.94;4163199;28;19916;-72
2024/04/02 02:19:09;;;;;;;;;;;;;;;10.75;63.12;99030.41;4164453;28;19909;-72
2024/04/02 02:21:09;;;;;;;;;;;;;;;10.61;63.44;99023.91;4164282;28;20496;-71
2024/04/02 02:23:09;;;;;;;;;;;;;;;10.58;63.57;99023.41;4164431;28;20313;-72
2024/04/02 02:25:10;;;;;;;;;;;;;;;10.50;63.71;99029.59;4164873;28;19940;-71
2024/04/02 02:27:10;;;;;;;;;;;;;;;10.60;63.48;99032.94;4167345;28;20296;-72
2024/04/02 02:29:10;;;;;;;;;;;;;;;10.66;63.35;99038.59;4168733;28;20007;-72
2024/04/02 02:31:11;;;;;;;;;;;;;;;10.61;63.38;99036.41;4163362;28;19924;-73
2024/04/02 02:33:11;;;;;;;;;;;;;;;10.85;63.07;99030.19;4164618;28;19909;-72
2024/04/02 02:35:11;;;;;;;;;;;;;;;10.66;63.40;99041.25;4164086;28;19995;-72
2024/04/02 02:37:12;;;;;;;;;;;;;;;10.83;62.93;99050.09;4164292;28;19955;-71
2024/04/02 02:39:12;;;;;;;;;;;;;;;10.86;63.07;99037.22;4163776;28;19975;-71
2024/04/02 02:41:12;;;;;;;;;;;;;;;10.76;63.04;99050.78;4164106;28;19916;-71
2024/04/02 02:43:13;;;;;;;;;;;;;;;10.82;62.91;99051.09;4163950;28;19915;-71
2024/04/02 02:45:13;;;;;;;;;;;;;;;10.86;62.68;99055.09;4163183;28;20443;-71
2024/04/02 02:47:13;;;;;;;;;;;;;;;10.69;63.37;99060.47;4161843;28;20533;-72
2024/04/02 02:49:14;;;;;;;;;;;;;;;10.77;63.23;99047.06;4164009;28;20499;-71
2024/04/02 02:51:14;;;;;;;;;;;;;;;10.89;62.69;99060.09;4164411;28;19955;-71
2024/04/02 02:53:15;;;;;;;;;;;;;;;11.00;62.34;99051.72;4164062;28;19909;-72
2024/04/02 02:55:15;;;;;;;;;;;;;;;10.96;62.38;99063.75;4164617;28;19944;-71
2024/04/02 02:57:15;;;;;;;;;;;;;;;10.91;62.53;99055.41;4164065;28;20373;-72
2024/04/02 02:59:15;;;;;;;;;;;;;;;10.93;62.50;99061.44;4165114;28;19909;-71
2024/04/02 03:01:16;;;;;;;;;;;;;;;11.00;62.41;99058.91;4168065;28;19909;-72
2024/04/02 03:03:16;;;;;;;;;;;;;;;11.00;62.18;99054.38;4164251;28;20413;-71
2024/04/02 03:05:17;;;;;;;;;;;;;;;10.92;62.48;99057.91;4163536;28;20007;-72
2024/04/02 03:07:17;;;;;;;;;;;;;;;10.95;62.27;99059.41;4163667;28;19917;-71
2024/04/02 03:09:17;;;;;;;;;;;;;;;11.00;62.15;99054.38;4161743;28;19963;-72
2024/04/02 03:11:17;;;;;;;;;;;;;;;11.07;61.87;99052.69;4164005;28;20103;-71
2024/04/02 03:13:18;;;;;;;;;;;;;;;11.19;61.66;99061.16;4162933;28;19913;-72
2024/04/02 03:15:18;;;;;;;;;;;;;;;11.10;62.13;99072.06;4162508;28;20003;-72
2024/04/02 03:17:18;;;;;;;;;;;;;;;11.18;61.92;99069.38;4161357;28;19913;-72
2024/04/02 03:19:19;;;;;;;;;;;;;;;11.10;62.02;99069.41;4163418;28;19948;-72
2024/04/02 03:21:19;;;;;;;;;;;;;;;11.07;62.06;99075.94;4163944;28;20388;-71
2024/04/02 03:23:20;;;;;;;;;;;;;;;11.05;62.06;99073.41;4163959;28;19908;-72
2024/04/02 03:25:20;;;;;;;;;;;;;;;10.94;62.36;99076.47;4164211;28;19909;-73
2024/04/02 03:27:21;;;;;;;;;;;;;;;11.05;61.98;99081.44;4163589;28;19920;-71
2024/04/02 03:29:21;;;;;;;;;;;;;;;11.07;62.33;99083.94;4162989;28;19909;-72
2024/04/02 03:31:22;;;;;;;;;;;;;;;11.03;62.27;99082.63;4163416;28;19913;-71
2024/04/02 03:33:22;;;;;;;;;;;;;;;10.91;62.24;99087.50;4163285;28;19955;-71
2024/04/02 03:35:23;;;;;;;;;;;;;;;11.08;62.06;99093.66;4167061;28;19920;-72
2024/04/02 03:37:23;;;;;;;;;;;;;;;10.92;62.08;99097.19;4170513;28;19932;-72
2024/04/02 03:39:24;;;;;;;;;;;;;;;11.00;61.95;99099.03;4171612;28;19955;-72
2024/04/02 03:41:25;;;;;;;;;;;;;;;10.99;61.81;99092.00;4168687;28;19944;-72
2024/04/02 03:43:25;;;;;;;;;;;;;;;10.96;61.57;99098.50;4164244;28;19935;-71
2024/04/02 03:45:26;;;;;;;;;;;;;;;11.07;61.30;99111.53;4164092;28;19917;-72
2024/04/02 03:47:26;;;;;;;;;;;;;;;10.87;61.56;99102.19;4162212;28;19909;-70
2024/04/02 03:49:27;;;;;;;;;;;;;;;10.83;61.56;99107.06;4161581;28;20258;-72
2024/04/02 03:51:27;;;;;;;;;;;;;;;11.01;61.31;99098.84;4163344;28;19948;-73
2024/04/02 03:53:27;;;;;;;;;;;;;;;11.11;61.12;99100.50;4163172;28;19912;-71
2024/04/02 03:55:32;;;;;;;;;;;;;;;11.15;60.88;99108.00;4163588;28;19920;-72
2024/04/02 03:57:32;;;;;;;;;;;;;;;11.08;60.99;99109.69;4162993;28;19909;-72
2024/04/02 03:59:35;;;;;;;;;;;;;;;11.01;61.23;99106.00;4162948;28;20370;-71
2024/04/02 04:01:35;;;;;;;;;;;;;;;11.01;61.14;99109.53;4158331;28;19913;-71
2024/04/02 04:03:36;;;;;;;;;;;;;;;11.00;61.17;99115.06;4164134;28;19916;-71
2024/04/02 04:05:36;;;;;;;;;;;;;;;11.02;61.32;99103.19;4165806;28;19931;-71
2024/04/02 04:07:36;;;;;;;;;;;;;;;11.03;61.43;99106.69;4165582;28;19921;-72
2024/04/02 04:09:38;;;;;;;;;;;;;;;11.08;61.35;99118.53;4165757;28;19913;-71
2024/04/02 04:11:38;;;;;;;;;;;;;;;11.04;61.50;99111.03;4166327;28;19924;-73
2024/04/02 04:13:38;;;;;;;;;;;;;;;11.00;61.51;99115.06;4163266;28;19913;-72
2024/04/02 04:15:39;;;;;;;;;;;;;;;11.07;61.37;99124.91;4169999;28;20007;-71
2024/04/02 04:17:39;;;;;;;;;;;;;;;11.19;61.38;99124.53;4160265;28;19979;-71
2024/04/02 04:19:39;;;;;;;;;;;;;;;11.21;61.42;99123.34;4162715;28;19909;-71
2024/04/02 04:21:40;;;;;;;;;;;;;;;11.31;61.27;99125.00;4166314;28;19916;-71
2024/04/02 04:23:40;;;;;;;;;;;;;;;11.00;62.06;99125.75;4170897;28;19916;-73
2024/04/02 04:25:40;;;;;;;;;;;;;;;11.08;62.02;99123.06;4169064;28;19909;-73
2024/04/02 04:27:40;;;;;;;;;;;;;;;10.93;62.32;99131.78;4170916;28;20135;-71
2024/04/02 04:29:41;;;;;;;;;;;;;;;10.98;62.33;99133.94;4168863;28;19913;-71
2024/04/02 04:31:47;;;;;;;;;;;;;;;11.03;62.19;99136.94;4163568;28;19919;-71
2024/04/02 04:33:49;;;;;;;;;;;;;;;10.95;62.66;99136.13;4162298;28;19916;-71
2024/04/02 04:35:49;;;;;;;;;;;;;;;11.00;62.29;99142.63;4162524;28;19970;-71
2024/04/02 04:37:50;;;;;;;;;;;;;;;10.98;62.31;99141.13;4168059;28;19909;-71
2024/04/02 04:39:52;;;;;;;;;;;;;;;11.02;62.29;99145.13;4181388;28;19916;-71
2024/04/02 04:41:52;;;;;;;;;;;;;;;11.12;61.89;99150.31;4167516;28;19999;-73
2024/04/02 04:43:53;;;;;;;;;;;;;;;11.13;62.07;99146.63;4163300;28;19913;-73
2024/04/02 04:45:54;;;;;;;;;;;;;;;11.16;61.76;99154.28;4162889;28;19941;-71
2024/04/02 04:47:56;;;;;;;;;;;;;;;10.98;62.15;99155.34;4161350;28;20419;-71
2024/04/02 04:49:56;;;;;;;;;;;;;;;11.05;62.05;99150.16;4162625;28;19941;-71
2024/04/02 04:51:56;;;;;;;;;;;;;;;11.01;62.10;99155.00;4163804;28;19916;-71
2024/04/02 04:53:56;;;;;;;;;;;;;;;10.99;61.90;99157.00;4163703;28;19949;-72
2024/04/02 04:55:58;;;;;;;;;;;;;;;11.02;61.86;99158.50;4163920;28;19975;-72
2024/04/02 04:57:58;;;;;;;;;;;;;;;10.96;62.07;99162.69;4164443;28;19916;-71
2024/04/02 04:59:58;;;;;;;;;;;;;;;10.91;62.23;99165.84;4161876;28;19912;-71
2024/04/02 05:01:59;;;;;;;;;;;;;;;10.87;62.29;99169.88;4162344;28;20000;-71
2024/04/02 05:03:59;;;;;;;;;;;;;;;11.01;62.00;99172.88;4161979;28;19913;-72
2024/04/02 05:06:03;;;;;;;;;;;;;;;10.99;61.93;99167.69;4162288;28;19964;-72
2024/04/02 05:08:20;;;;;;;;;;;;;;;11.13;61.54;99165.34;4161327;28;19924;-72
2024/04/02 05:10:21;;;;;;;;;;;;;;;11.11;61.44;99170.03;4162051;28;19917;-71
2024/04/02 05:12:21;;;;;;;;;;;;;;;11.12;61.27;99174.38;4162164;28;19923;-71
2024/04/02 05:14:22;;;;;;;;;;;;;;;11.16;61.00;99179.22;4161950;28;19913;-71
2024/04/02 05:16:22;;;;;;;;;;;;;;;11.07;61.28;99183.75;4159686;28;19912;-72
2024/04/02 05:18:22;;;;;;;;;;;;;;;11.27;60.72;99182.56;4162189;28;20436;-71
2024/04/02 05:20:23;;;;;;;;;;;;;;;10.99;61.38;99182.94;4162552;28;19909;-71
2024/04/02 05:22:24;;;;;;;;;;;;;;;10.95;61.37;99187.78;4162348;28;19923;-71
2024/04/02 05:24:24;;;;;;;;;;;;;;;11.09;61.04;99194.28;4162097;28;20336;-71
2024/04/02 05:26:26;;;;;;;;;;;;;;;10.97;60.84;99199.13;4162407;28;19908;-71
2024/04/02 05:28:26;;;;;;;;;;;;;;;11.18;60.48;99187.91;4160231;28;19924;-71
2024/04/02 05:30:27;;;;;;;;;;;;;;;11.36;60.07;99200.25;4161987;28;19913;-71
2024/04/02 05:32:28;;;;;;;;;;;;;;;11.19;60.39;99204.78;4162049;28;20324;-71
2024/04/02 05:34:28;;;;;;;;;;;;;;;11.05;60.41;99200.97;4161855;28;19964;-71
2024/04/02 05:36:28;;;;;;;;;;;;;;;10.98;60.65;99214.16;4164427;28;19920;-71
2024/04/02 05:38:29;;;;;;;;;;;;;;;11.11;60.43;99212.84;4164575;28;20749;-72
2024/04/02 05:40:29;;;;;;;;;;;;;;;11.10;60.67;99219.19;4163745;28;19952;-71
2024/04/02 05:42:29;;;;;;;;;;;;;;;11.12;60.64;99211.81;4165228;28;19995;-72
2024/04/02 05:44:29;;;;;;;;;;;;;;;11.04;60.98;99213.50;4167184;28;19909;-71
2024/04/02 05:46:30;;;;;;;;;;;;;;;10.90;61.20;99222.19;4172102;28;19913;-72
2024/04/02 05:48:30;;;;;;;;;;;;;;;10.85;61.24;99229.91;4173207;28;19916;-71
2024/04/02 05:50:30;;;;;;;;;;;;;;;11.01;60.87;99213.84;4173547;28;19916;-71
2024/04/02 05:52:31;;;;;;;;;;;;;;;11.14;60.64;99223.19;4172109;28;19912;-71
2024/04/02 05:54:31;;;;;;;;;;;;;;;11.17;60.58;99221.03;4175575;28;19915;-74
2024/04/02 05:56:31;;;;;;;;;;;;;;;10.97;60.68;99223.19;4172040;28;19931;-71
2024/04/02 05:58:32;;;;;;;;;;;;;;;11.16;60.52;99218.50;4174985;28;19963;-72
2024/04/02 06:00:33;;;;;;;;;;;;;;;11.24;60.47;99229.22;4172964;28;19996;-71
2024/04/02 06:02:34;;;;;;;;;;;;;;;11.12;60.51;99230.56;4166619;28;19916;-73
2024/04/02 06:04:34;;;;;;;;;;;;;;;10.93;61.28;99232.56;4165302;28;19940;-72
2024/04/02 06:06:34;;;;;;;;;;;;;;;11.12;61.06;99235.91;4164701;28;20433;-72
2024/04/02 06:08:34;;;;;;;;;;;;;;;11.01;61.13;99234.38;4164025;28;20305;-71
2024/04/02 06:10:34;;;;;;;;;;;;;;;11.15;61.20;99246.25;4164244;28;20373;-72
2024/04/02 06:12:35;;;;;;;;;;;;;;;10.92;61.56;99249.59;4164581;28;20546;-72
2024/04/02 06:14:35;;;;;;;;;;;;;;;11.05;61.46;99249.94;4164333;28;20427;-71
2024/04/02 06:16:36;;;;;;;;;;;;;;;10.89;62.11;99257.94;4160773;28;20608;-72
2024/04/02 06:18:36;;;;;;;;;;;;;;;11.09;61.94;99258.47;4163166;28;19909;-72
2024/04/02 06:20:36;;;;;;;;;;;;;;;11.03;62.24;99264.47;4164616;28;19956;-72
2024/04/02 06:22:37;;;;;;;;;;;;;;;10.62;63.58;99270.63;4163468;28;20401;-71
2024/04/02 06:24:38;;;;;;;;;;;;;;;10.81;63.24;99274.00;4164551;28;19909;-73
2024/04/02 06:26:38;;;;;;;;;;;;;;;11.00;62.62;99272.84;4164330;28;19952;-71
2024/04/02 06:28:38;;;;;;;;;;;;;;;10.84;63.39;99276.34;4163830;28;19917;-71
2024/04/02 06:30:39;;;;;;;;;;;;;;;10.70;64.83;99275.97;4164066;28;19966;-71
2024/04/02 06:32:39;;;;;;;;;;;;;;;11.04;63.52;99276.84;4164059;28;19916;-71
2024/04/02 06:34:39;;;;;;;;;;;;;;;11.15;63.71;99279.19;4164185;28;19916;-72
2024/04/02 06:36:40;;;;;;;;;;;;;;;10.91;64.28;99280.03;4164279;28;20357;-71
2024/04/02 06:38:40;;;;;;;;;;;;;;;10.90;64.39;99284.56;4163907;28;19916;-72
2024/04/02 06:40:40;;;;;;;;;;;;;;;10.68;64.72;99286.00;4173170;28;19908;-71
2024/04/02 06:42:41;;;;;;;;;;;;;;;10.84;64.79;99295.06;4164205;28;20408;-71
2024/04/02 06:44:41;;;;;;;;;;;;;;;10.58;65.89;99298.69;4164205;28;20273;-71
2024/04/02 06:46:41;;;;;;;;;;;;;;;10.36;67.44;99289.38;4162554;28;19920;-72
2024/04/02 06:48:42;;;;;;;;;;;;;;;10.30;68.03;99297.06;4162964;28;19909;-73
2024/04/02 06:50:42;;;;;;;;;;;;;;;10.26;68.87;99300.22;4164013;28;20281;-73
2024/04/02 06:52:42;;;;;;;;;;;;;;;10.44;69.86;99297.44;4163922;28;19909;-71
2024/04/02 06:54:42;;;;;;;;;;;;;;;10.42;69.17;99296.81;4163863;28;19909;-73
2024/04/02 06:56:43;;;;;;;;;;;;;;;10.15;70.07;99304.84;4164024;28;19916;-73
2024/04/02 06:58:44;;;;;;;;;;;;;;;10.21;70.61;99299.84;4163393;28;19909;-72
2024/04/02 07:00:45;;;;;;;;;;;;;;;10.10;71.23;99300.97;4163760;28;19916;-73
2024/04/02 07:02:45;;;;;;;;;;;;;;;10.34;70.74;99302.09;4164454;28;19999;-72
2024/04/02 07:04:45;;;;;;;;;;;;;;;10.39;69.95;99295.28;4166276;28;19905;-72
2024/04/02 07:06:46;;;;;;;;;;;;;;;10.09;70.79;99301.97;4163630;28;19909;-73
2024/04/02 07:08:47;;;;;;;;;;;;;;;10.19;71.12;99316.03;4163604;28;19911;-73
2024/04/02 07:10:58;;;;;;;;;;;;;;;10.18;70.96;99316.22;4163667;28;19913;-73
2024/04/02 07:12:58;;;;;;;;;;;;;;;10.35;70.50;99311.75;4163859;28;19909;-73
2024/04/02 07:14:58;;;;;;;;;;;;;;;10.26;69.90;99317.06;4164802;28;19913;-73
2024/04/02 07:16:58;;;;;;;;;;;;;;;10.38;70.37;99315.00;4169075;28;19913;-74
2024/04/02 07:18:59;;;;;;;;;;;;;;;10.50;69.25;99320.03;4168036;28;19952;-72
2024/04/02 07:21:01;;;;;;;;;;;;;;;10.38;68.95;99328.34;4165613;28;19909;-73
2024/04/02 07:23:01;;;;;;;;;;;;;;;10.38;68.71;99320.34;4163381;28;20035;-73
2024/04/02 07:25:01;;;;;;;;;;;;;;;10.38;68.25;99325.69;4162080;28;19913;-72
2024/04/02 07:27:01;;;;;;;;;;;;;;;10.54;67.92;99326.72;4163374;28;19916;-73
2024/04/02 07:29:03;;;;;;;;;;;;;;;10.50;68.09;99338.72;4162612;28;19916;-74
2024/04/02 07:31:03;;;;;;;;;;;;;;;10.67;67.23;99334.28;4163219;28;19948;-74
2024/04/02 07:33:03;;;;;;;;;;;;;;;10.73;66.65;99336.28;4163034;28;19913;-73
2024/04/02 07:35:04;;;;;;;;;;;;;;;10.73;66.42;99330.94;4161826;28;20472;-73
2024/04/02 07:37:04;;;;;;;;;;;;;;;10.96;65.73;99347.19;4163075;28;19915;-73
2024/04/02 07:39:05;;;;;;;;;;;;;;;11.02;65.79;99343.88;4162644;28;19917;-72
2024/04/02 07:41:05;;;;;;;;;;;;;;;11.19;65.46;99343.91;4165700;28;19932;-74
2024/04/02 07:43:06;;;;;;;;;;;;;;;11.21;64.42;99348.06;4170450;28;19944;-72
2024/04/02 07:45:07;;;;;;;;;;;;;;;11.24;64.43;99341.59;4171032;28;19909;-73
2024/04/02 07:47:07;;;;;;;;;;;;;;;11.47;63.78;99341.75;4166452;28;19913;-73
2024/04/02 07:49:07;;;;;;;;;;;;;;;11.60;63.56;99340.38;4170628;28;19912;-73
2024/04/02 07:51:08;;;;;;;;;;;;;;;11.45;63.01;99353.59;4174806;28;20101;-72
2024/04/02 07:53:09;;;;;;;;;;;;;;;11.39;62.70;99355.97;4162895;28;20340;-73
2024/04/02 07:55:09;;;;;;;;;;;;;;;11.57;62.38;99357.63;4164200;28;19965;-72
2024/04/02 07:57:10;;;;;;;;;;;;;;;11.81;62.33;99358.59;4163828;28;19909;-72
2024/04/02 07:59:10;;;;;;;;;;;;;;;12.01;61.32;99353.75;4161905;28;19924;-72
2024/04/02 08:01:10;;;;;;;;;;;;;;;11.57;62.05;99365.66;4163556;28;19913;-72
2024/04/02 08:03:10;;;;;;;;;;;;;;;11.88;61.20;99370.31;4163918;28;20015;-73
2024/04/02 08:05:11;;;;;;;;;;;;;;;11.89;60.98;99374.69;4163500;28;19916;-72
2024/04/02 08:07:13;;;;;;;;;;;;;;;11.65;61.11;99386.25;4162540;28;20344;-71
2024/04/02 08:09:13;;;;;;;;;;;;;;;11.68;60.45;99380.53;4162133;28;20288;-73
2024/04/02 08:11:13;;;;;;;;;;;;;;;11.51;60.66;99379.72;4163324;28;19959;-73
2024/04/02 08:13:14;;;;;;;;;;;;;;;11.63;60.63;99378.34;4163198;28;19925;-72
2024/04/02 08:15:14;;;;;;;;;;;;;;;11.70;60.20;99389.25;4163435;28;20251;-72
2024/04/02 08:17:17;;;;;;;;;;;;;;;11.64;60.51;99374.69;4161634;28;19909;-72
2024/04/02 08:19:17;;;;;;;;;;;;;;;11.52;60.45;99386.75;4162562;28;19955;-71
2024/04/02 08:21:18;;;;;;;;;;;;;;;11.96;59.11;99383.69;4162685;28;20329;-73
2024/04/02 08:23:18;;;;;;;;;;;;;;;11.91;59.48;99388.72;4162617;28;19909;-73
2024/04/02 08:25:18;;;;;;;;;;;;;;;11.98;58.19;99387.09;4161397;28;20297;-72
2024/04/02 08:27:19;;;;;;;;;;;;;;;12.13;57.79;99394.41;4162743;28;20272;-73
2024/04/02 08:29:19;;;;;;;;;;;;;;;12.09;57.69;99396.59;4161958;28;20353;-72
2024/04/02 08:31:20;;;;;;;;;;;;;;;12.05;57.36;99399.78;4162375;28;19981;-72
2024/04/02 08:33:20;;;;;;;;;;;;;;;12.13;57.44;99394.41;4162503;28;19916;-72
2024/04/02 08:35:20;;;;;;;;;;;;;;;12.36;56.57;99404.41;4162360;28;19909;-72
2024/04/02 08:37:21;;;;;;;;;;;;;;;12.48;56.29;99398.50;4162995;28;19909;-72
2024/04/02 08:39:21;;;;;;;;;;;;;;;12.92;55.58;99398.97;4162803;28;19952;-72
2024/04/02 08:41:24;;;;;;;;;;;;;;;12.89;54.34;99400.16;4161125;28;20002;-71
2024/04/02 08:43:25;;;;;;;;;;;;;;;12.99;53.67;99399.09;4162327;28;20327;-72
2024/04/02 08:45:25;;;;;;;;;;;;;;;12.90;52.73;99404.50;4162933;28;20007;-72
2024/04/02 08:47:27;;;;;;;;;;;;;;;13.26;52.75;99398.59;4164966;28;19980;-72
2024/04/02 08:49:27;;;;;;;;;;;;;;;13.82;51.76;99392.16;4172130;28;19944;-74
2024/04/02 08:51:29;;;;;;;;;;;;;;;13.62;52.17;99399.88;4174634;28;19913;-72
2024/04/02 08:53:33;;;;;;;;;;;;;;;13.46;51.95;99400.03;4165348;28;19913;-72
2024/04/02 08:55:39;;;;;;;;;;;;;;;13.30;51.64;99396.38;4164219;28;19909;-72
2024/04/02 08:57:40;;;;;;;;;;;;;;;13.04;52.24;99402.06;4162042;28;19913;-73
2024/04/02 08:59:42;;;;;;;;;;;;;;;13.13;51.70;99411.75;4161973;28;19916;-72
2024/04/02 09:01:44;;;;;;;;;;;;;;;12.95;51.14;99415.53;4161545;28;19923;-72
2024/04/02 09:03:46;;;;;;;;;;;;;;;13.03;50.79;99403.94;4162955;28;19916;-72
2024/04/02 09:05:46;;;;;;;;;;;;;;;13.39;50.66;99402.59;4167867;28;19951;-72
2024/04/02 09:07:46;;;;;;;;;;;;;;;13.44;50.51;99405.56;4170862;28;20573;-75
2024/04/02 09:09:47;;;;;;;;;;;;;;;13.87;50.21;99402.34;4172338;28;19909;-74
2024/04/02 09:11:51;;;;;;;;;;;;;;;13.40;49.79;99405.06;4176618;28;19913;-73
2024/04/02 09:13:52;;;;;;;;;;;;;;;13.21;49.16;99417.09;4175643;28;19913;-71
2024/04/02 09:15:53;;;;;;;;;;;;;;;13.65;48.66;99404.06;4176999;28;19909;-72
2024/04/02 09:17:54;;;;;;;;;;;;;;;13.98;48.17;99403.78;4175748;28;19905;-71
2024/04/02 09:19:54;;;;;;;;;;;;;;;13.49;48.35;99405.88;4175432;28;19915;-72
2024/04/02 09:21:54;;;;;;;;;;;;;;;13.67;48.34;99407.41;4165886;28;19908;-72
2024/04/02 09:23:55;;;;;;;;;;;;;;;13.76;48.87;99416.22;4165404;28;19909;-71
2024/04/02 09:25:56;;;;;;;;;;;;;;;13.35;49.45;99399.38;4165097;28;19999;-71
2024/04/02 09:27:56;;;;;;;;;;;;;;;13.24;48.62;99402.47;4164928;28;19932;-72
2024/04/02 09:29:57;;;;;;;;;;;;;;;13.53;48.08;99406.34;4164510;28;19909;-72
2024/04/02 09:31:58;;;;;;;;;;;;;;;13.45;48.55;99404.53;4164903;28;19913;-71
2024/04/02 09:34:04;;;;;;;;;;;;;;;13.72;48.46;99410.38;4164835;28;20334;-72
2024/04/02 09:36:12;;;;;;;;;;;;;;;13.88;48.50;99410.25;4165001;28;20524;-72
2024/04/02 09:38:14;;;;;;;;;;;;;;;14.11;47.90;99403.16;4164407;28;19916;-71
2024/04/02 09:40:16;;;;;;;;;;;;;;;14.01;48.02;99389.97;4164759;28;19909;-72
2024/04/02 09:42:17;;;;;;;;;;;;;;;14.04;47.77;99403.03;4170165;28;19908;-71
2024/04/02 09:44:19;;;;;;;;;;;;;;;14.33;47.17;99393.31;4167349;28;19915;-72
2024/04/02 09:46:20;;;;;;;;;;;;;;;13.99;46.68;99397.34;4164573;28;20007;-72
2024/04/02 09:48:22;;;;;;;;;;;;;;;14.32;46.02;99394.34;4162655;28;19963;-72
2024/04/02 09:50:23;;;;;;;;;;;;;;;14.28;46.21;99393.03;4164699;28;19941;-71
2024/04/02 09:52:23;;;;;;;;;;;;;;;14.16;46.03;99395.34;4164841;28;20401;-72
2024/04/02 09:54:23;;;;;;;;;;;;;;;14.60;45.93;99391.00;4164708;28;19931;-72
2024/04/02 09:56:24;;;;;;;;;;;;;;;14.53;46.03;99408.91;4164455;28;20500;-71
2024/04/02 09:58:25;;;;;;;;;;;;;;;14.96;45.07;99400.97;4164010;28;19916;-72
2024/04/02 10:00:25;;;;;;;;;;;;;;;14.83;45.17;99390.91;4164584;28;19908;-71
2024/04/02 10:02:27;;;;;;;;;;;;;;;15.18;44.58;99401.03;4164555;28;19908;-72
2024/04/02 10:04:27;;;;;;;;;;;;;;;14.90;44.62;99396.38;4164363;28;20331;-71
2024/04/02 10:06:31;;;;;;;;;;;;;;;14.55;45.77;99396.13;4164397;28;19960;-71
2024/04/02 10:08:31;;;;;;;;;;;;;;;14.10;46.51;99404.97;4163631;28;20353;-72
2024/04/02 10:10:31;;;;;;;;;;;;;;;14.09;46.32;99411.38;4164374;28;19913;-72
2024/04/02 10:12:33;;;;;;;;;;;;;;;14.12;46.44;99402.13;4164328;28;19972;-72
2024/04/02 10:14:36;;;;;;;;;;;;;;;13.87;46.77;99400.50;4164427;28;19913;-71
2024/04/02 10:16:44;;;;;;;;;;;;;;;14.27;46.47;99407.50;4163280;28;19921;-73
2024/04/02 10:18:48;;;;;;;;;;;;;;;13.85;47.21;99410.59;4163799;28;19913;-71
2024/04/02 10:20:57;;;;;;;;;;;;;;;13.88;47.10;99415.63;4163629;28;20369;-74
2024/04/02 10:22:59;;;;;;;;;;;;;;;13.72;46.98;99418.41;4162061;28;19909;-72
2024/04/02 10:25:05;;;;;;;;;;;;;;;13.96;46.43;99414.69;4164969;28;19917;-71
2024/04/02 10:27:08;;;;;;;;;;;;;;;13.88;47.36;99421.00;4164190;28;19916;-71
2024/04/02 10:29:09;;;;;;;;;;;;;;;13.88;47.34;99412.94;4163612;28;19935;-73